Time;durP1;ratioP1;P1;durP2;ratioP2;P2;SDS_P1;SDS_P2;PMS_P1;PMS_P2;Temp;Humidity;BMP_temperature;BMP_pressure;BME280_temperature;BME280_humidity;BME280_pressure;Samples;Min_cycle;Max_cycle;Signal;HPM_P1;HPM_P2
2020/12/09 00:01:29;;;;;;;77.97;38.35;;;;;;;;;;5085451;28;20411;-60
2020/12/09 00:03:56;;;;;;;89.53;39.55;;;;;;;;;;5086363;28;20486;-60
2020/12/09 00:06:22;;;;;;;86.32;39.22;;;;;;;;;;5087324;28;20221;-60
2020/12/09 00:08:48;;;;;;;85.80;40.83;;;;;;;;;;5085398;28;20051;-60
2020/12/09 00:11:15;;;;;;;82.80;39.20;;;;;;;;;;5076164;28;20044;-60
2020/12/09 00:13:41;;;;;;;81.32;37.42;;;;;;;;;;5067832;28;20360;-59
2020/12/09 00:16:07;;;;;;;79.93;37.50;;;;;;;;;;5085758;28;20702;-60
2020/12/09 00:18:32;;;;;;;80.50;38.00;;;;;;;;;;5085747;28;20020;-60
2020/12/09 00:20:58;;;;;;;83.10;40.20;;;;;;;;;;5085468;28;20024;-59
2020/12/09 00:23:24;;;;;;;77.78;38.58;;;;;;;;;;5077722;28;20157;-60
2020/12/09 00:25:50;;;;;;;87.10;40.08;;;;;;;;;;5073081;28;20032;-60
2020/12/09 00:28:16;;;;;;;88.03;39.80;;;;;;;;;;5079789;28;20039;-60
2020/12/09 00:30:42;;;;;;;83.63;38.92;;;;;;;;;;5069425;28;20028;-60
2020/12/09 00:33:10;;;;;;;85.05;38.78;;;;;;;;;;5077502;28;20034;-58
2020/12/09 00:35:36;;;;;;;77.97;40.05;;;;;;;;;;5078581;28;20028;-59
2020/12/09 00:38:02;;;;;;;86.20;38.55;;;;;;;;;;5079276;28;20025;-59
2020/12/09 00:40:28;;;;;;;79.18;38.90;;;;;;;;;;5077187;28;20459;-59
2020/12/09 00:42:54;;;;;;;75.65;37.60;;;;;;;;;;5080241;28;20032;-59
2020/12/09 00:45:20;;;;;;;76.93;39.25;;;;;;;;;;5086021;28;20058;-60
2020/12/09 00:47:46;;;;;;;86.45;38.97;;;;;;;;;;5086704;28;20039;-59
2020/12/09 00:52:42;;;;;;;82.28;39.10;;;;;;;;;;5085159;28;20405;-59
2020/12/09 00:55:08;;;;;;;86.30;40.80;;;;;;;;;;5073296;28;20435;-59
2020/12/09 00:57:34;;;;;;;84.50;38.92;;;;;;;;;;5084759;28;20032;-58
2020/12/09 01:00:00;;;;;;;85.45;40.35;;;;;;;;;;5082374;28;20036;-59
2020/12/09 01:02:26;;;;;;;84.97;39.45;;;;;;;;;;5083198;28;20052;-60
2020/12/09 01:04:52;;;;;;;83.20;39.22;;;;;;;;;;5085760;28;20081;-59
2020/12/09 01:07:21;;;;;;;86.90;40.15;;;;;;;;;;5085335;28;20028;-60
2020/12/09 01:09:47;;;;;;;77.18;37.90;;;;;;;;;;5080546;28;20035;-60
2020/12/09 01:12:13;;;;;;;83.65;39.15;;;;;;;;;;5070582;28;20028;-59
2020/12/09 01:14:40;;;;;;;84.65;40.50;;;;;;;;;;5074154;28;20035;-60
2020/12/09 01:17:06;;;;;;;78.70;38.10;;;;;;;;;;5078334;28;20016;-60
2020/12/09 01:19:32;;;;;;;84.10;39.03;;;;;;;;;;5084017;28;20692;-58
2020/12/09 01:21:58;;;;;;;87.78;38.97;;;;;;;;;;5086043;28;20032;-60
2020/12/09 01:24:24;;;;;;;83.80;39.95;;;;;;;;;;5080884;28;20505;-60
2020/12/09 01:26:50;;;;;;;81.32;39.42;;;;;;;;;;5078980;28;20032;-60
2020/12/09 01:29:16;;;;;;;81.50;38.75;;;;;;;;;;5081761;28;20472;-60
2020/12/09 01:31:43;;;;;;;77.75;39.17;;;;;;;;;;5064802;28;20021;-60
2020/12/09 01:34:09;;;;;;;84.07;37.58;;;;;;;;;;5086141;28;20162;-60
2020/12/09 01:36:35;;;;;;;81.82;38.28;;;;;;;;;;5084409;28;20076;-59
2020/12/09 01:39:01;;;;;;;85.43;39.70;;;;;;;;;;5076709;28;20024;-59
2020/12/09 01:41:27;;;;;;;86.25;38.33;;;;;;;;;;5067268;28;20032;-59
2020/12/09 01:43:53;;;;;;;86.25;40.75;;;;;;;;;;5084322;28;20028;-60
2020/12/09 01:46:30;;;;;;;87.95;40.08;;;;;;;;;;5076718;28;20488;-60
2020/12/09 01:48:56;;;;;;;82.38;40.40;;;;;;;;;;5067188;28;20039;-58
2020/12/09 01:51:25;;;;;;;81.68;38.20;;;;;;;;;;5085748;28;20030;-59
2020/12/09 01:53:55;;;;;;;88.30;41.00;;;;;;;;;;5081043;28;20043;-59
2020/12/09 01:56:21;;;;;;;85.13;39.83;;;;;;;;;;5081251;28;20752;-57
2020/12/09 01:58:50;;;;;;;79.75;38.45;;;;;;;;;;5079394;28;20024;-57
2020/12/09 02:01:17;;;;;;;82.13;40.15;;;;;;;;;;5082523;28;20040;-60
2020/12/09 02:03:43;;;;;;;84.95;38.55;;;;;;;;;;5083800;28;20040;-57
2020/12/09 02:06:09;;;;;;;89.30;41.47;;;;;;;;;;5083949;28;20024;-55
2020/12/09 02:08:35;;;;;;;83.28;40.05;;;;;;;;;;5077413;28;20477;-58
2020/12/09 02:11:05;;;;;;;87.28;40.08;;;;;;;;;;5079681;28;20479;-57
2020/12/09 02:13:32;;;;;;;80.68;39.42;;;;;;;;;;5064490;28;20093;-58
2020/12/09 02:15:58;;;;;;;82.65;38.80;;;;;;;;;;5069487;28;20024;-57
2020/12/09 02:18:24;;;;;;;84.38;41.25;;;;;;;;;;5085378;28;20021;-58
2020/12/09 02:20:50;;;;;;;85.55;39.72;;;;;;;;;;5079944;28;20036;-58
2020/12/09 02:23:16;;;;;;;82.93;39.60;;;;;;;;;;5089508;28;20032;-56
2020/12/09 02:25:42;;;;;;;90.00;41.30;;;;;;;;;;5087826;28;20034;-53
2020/12/09 02:28:08;;;;;;;83.13;37.83;;;;;;;;;;5078539;28;20027;-55
2020/12/09 02:30:34;;;;;;;87.13;41.45;;;;;;;;;;5070175;28;20024;-59
2020/12/09 02:33:00;;;;;;;86.78;38.00;;;;;;;;;;5080210;28;20558;-58
2020/12/09 02:35:26;;;;;;;88.57;39.17;;;;;;;;;;5086176;28;20472;-58
2020/12/09 02:37:53;;;;;;;85.40;41.88;;;;;;;;;;5089158;28;20082;-55
2020/12/09 02:40:21;;;;;;;89.25;40.83;;;;;;;;;;5083314;28;20078;-57
2020/12/09 02:42:47;;;;;;;86.07;39.95;;;;;;;;;;5074029;28;20048;-56
2020/12/09 02:45:13;;;;;;;81.10;39.70;;;;;;;;;;5086564;28;20038;-56
2020/12/09 02:47:39;;;;;;;75.25;37.03;;;;;;;;;;5088312;28;20580;-60
2020/12/09 02:50:05;;;;;;;84.15;39.45;;;;;;;;;;5088811;28;20110;-59
2020/12/09 02:52:31;;;;;;;87.68;39.85;;;;;;;;;;5085917;28;20466;-55
2020/12/09 02:54:56;;;;;;;86.07;41.67;;;;;;;;;;5088792;28;20116;-57
2020/12/09 02:57:22;;;;;;;75.25;36.90;;;;;;;;;;5078544;28;20553;-58
2020/12/09 02:59:48;;;;;;;84.32;39.60;;;;;;;;;;5085432;28;20357;-57
2020/12/09 03:02:14;;;;;;;93.38;39.60;;;;;;;;;;5086193;28;20105;-59
2020/12/09 03:04:40;;;;;;;84.60;40.33;;;;;;;;;;5087176;28;20039;-56
2020/12/09 03:07:06;;;;;;;85.85;38.08;;;;;;;;;;5076808;28;20028;-58
2020/12/09 03:09:32;;;;;;;88.43;41.42;;;;;;;;;;5072343;28;20016;-58
2020/12/09 03:11:58;;;;;;;91.07;41.88;;;;;;;;;;5073912;28;20071;-58
2020/12/09 03:14:24;;;;;;;84.82;38.20;;;;;;;;;;5071298;28;20024;-58
2020/12/09 03:16:50;;;;;;;85.40;40.72;;;;;;;;;;5086128;28;20016;-56
2020/12/09 03:19:16;;;;;;;82.22;40.13;;;;;;;;;;5087342;28;20051;-56
2020/12/09 03:21:43;;;;;;;82.57;39.42;;;;;;;;;;5080901;28;20134;-55
2020/12/09 03:24:09;;;;;;;89.90;40.85;;;;;;;;;;5077216;28;20399;-57
2020/12/09 03:26:35;;;;;;;90.53;40.28;;;;;;;;;;5081051;28;20043;-59
2020/12/09 03:29:01;;;;;;;91.28;42.03;;;;;;;;;;5069076;28;20032;-59
2020/12/09 03:31:27;;;;;;;88.03;40.00;;;;;;;;;;5067658;28;20024;-58
2020/12/09 03:33:52;;;;;;;88.30;40.63;;;;;;;;;;5072280;28;20020;-58
2020/12/09 03:36:19;;;;;;;85.53;39.17;;;;;;;;;;5088091;28;20058;-58
2020/12/09 03:38:45;;;;;;;88.03;40.65;;;;;;;;;;5081254;28;20035;-58
2020/12/09 03:41:10;;;;;;;88.55;41.25;;;;;;;;;;5077613;28;20028;-58
2020/12/09 03:43:36;;;;;;;95.57;42.10;;;;;;;;;;5084385;28;20054;-58
2020/12/09 03:46:02;;;;;;;81.90;40.88;;;;;;;;;;5086497;28;20026;-59
2020/12/09 03:48:28;;;;;;;86.13;40.28;;;;;;;;;;5087628;28;20028;-56
2020/12/09 03:50:54;;;;;;;84.75;40.10;;;;;;;;;;5082471;28;20032;-55
2020/12/09 03:53:21;;;;;;;86.22;41.25;;;;;;;;;;5084442;28;20016;-57
2020/12/09 03:55:47;;;;;;;90.55;39.67;;;;;;;;;;5074986;28;20039;-57
2020/12/09 03:58:13;;;;;;;83.22;40.03;;;;;;;;;;5087233;28;20074;-56
2020/12/09 04:00:39;;;;;;;85.28;38.08;;;;;;;;;;5086818;28;20028;-57
2020/12/09 04:03:05;;;;;;;92.93;41.20;;;;;;;;;;5078770;28;20036;-57
2020/12/09 04:05:31;;;;;;;91.97;41.15;;;;;;;;;;5086066;28;20024;-57
2020/12/09 04:07:57;;;;;;;82.68;40.20;;;;;;;;;;5085769;28;20165;-59
2020/12/09 04:10:23;;;;;;;90.93;42.13;;;;;;;;;;5085799;28;20211;-58
2020/12/09 04:12:49;;;;;;;88.40;41.30;;;;;;;;;;5068621;28;20515;-56
2020/12/09 04:15:15;;;;;;;93.82;41.83;;;;;;;;;;5076555;28;20024;-58
2020/12/09 04:17:41;;;;;;;87.70;39.67;;;;;;;;;;5067421;28;20028;-58
2020/12/09 04:20:08;;;;;;;89.95;42.33;;;;;;;;;;5074188;28;20024;-59
2020/12/09 04:22:34;;;;;;;84.53;39.85;;;;;;;;;;5082317;28;20032;-58
2020/12/09 04:25:00;;;;;;;88.50;41.75;;;;;;;;;;5086943;28;20378;-58
2020/12/09 04:27:26;;;;;;;83.88;41.63;;;;;;;;;;5085378;28;20032;-57
2020/12/09 04:29:52;;;;;;;87.90;39.22;;;;;;;;;;5077682;28;20028;-55
2020/12/09 04:32:18;;;;;;;86.28;39.67;;;;;;;;;;5059719;28;20036;-54
2020/12/09 04:34:44;;;;;;;87.40;41.30;;;;;;;;;;5058893;28;20032;-58
2020/12/09 04:37:11;;;;;;;94.10;41.45;;;;;;;;;;5085777;28;20413;-56
2020/12/09 04:39:37;;;;;;;89.90;41.88;;;;;;;;;;5082231;28;20086;-57
2020/12/09 04:42:04;;;;;;;91.40;41.80;;;;;;;;;;5070881;28;20048;-59
2020/12/09 04:44:30;;;;;;;83.50;41.72;;;;;;;;;;5077182;28;20028;-59
2020/12/09 04:47:01;;;;;;;100.10;43.33;;;;;;;;;;5086594;28;20631;-58
2020/12/09 04:49:31;;;;;;;89.53;42.80;;;;;;;;;;5078719;28;20035;-58
2020/12/09 04:52:05;;;;;;;96.13;42.03;;;;;;;;;;5054625;28;20066;-56
2020/12/09 04:54:37;;;;;;;86.25;41.65;;;;;;;;;;5080012;28;20574;-58
2020/12/09 04:57:21;;;;;;;95.88;43.38;;;;;;;;;;5086516;28;20020;-58
2020/12/09 04:59:54;;;;;;;86.70;41.03;;;;;;;;;;5086246;28;20047;-56
2020/12/09 05:02:23;;;;;;;94.15;42.92;;;;;;;;;;5078091;28;20029;-58
2020/12/09 05:04:51;;;;;;;98.38;44.22;;;;;;;;;;5067219;28;20085;-58
2020/12/09 05:07:17;;;;;;;92.00;42.50;;;;;;;;;;5079122;28;20024;-57
2020/12/09 05:09:43;;;;;;;100.35;42.75;;;;;;;;;;5071336;28;20559;-56
2020/12/09 05:12:10;;;;;;;89.28;41.50;;;;;;;;;;5058187;28;20050;-56
2020/12/09 05:14:38;;;;;;;92.55;42.05;;;;;;;;;;5073318;28;20027;-58
2020/12/09 05:17:05;;;;;;;89.40;43.63;;;;;;;;;;5067841;28;20048;-57
2020/12/09 05:19:31;;;;;;;87.60;43.40;;;;;;;;;;5084046;28;20404;-57
2020/12/09 05:21:59;;;;;;;88.45;42.25;;;;;;;;;;5086467;28;20031;-58
2020/12/09 05:24:25;;;;;;;98.65;44.53;;;;;;;;;;5077305;28;20028;-57
2020/12/09 05:26:51;;;;;;;103.00;43.13;;;;;;;;;;5082550;28;20059;-59
2020/12/09 05:29:19;;;;;;;92.18;43.58;;;;;;;;;;5080462;28;20020;-59
2020/12/09 05:31:49;;;;;;;98.38;43.53;;;;;;;;;;5076344;28;20054;-55
2020/12/09 05:34:35;;;;;;;98.45;44.17;;;;;;;;;;5079895;28;20032;-57
2020/12/09 05:37:02;;;;;;;97.88;44.75;;;;;;;;;;5067137;28;20716;-59
2020/12/09 05:39:28;;;;;;;96.82;44.90;;;;;;;;;;5085113;28;20693;-56
2020/12/09 05:41:57;;;;;;;93.78;43.22;;;;;;;;;;5071806;28;20852;-58
2020/12/09 05:44:25;;;;;;;95.43;43.13;;;;;;;;;;5073365;28;20111;-57
2020/12/09 05:47:03;;;;;;;94.32;44.83;;;;;;;;;;5073936;28;20445;-58
2020/12/09 05:49:31;;;;;;;91.28;42.58;;;;;;;;;;5075778;28;20043;-58
2020/12/09 05:52:06;;;;;;;96.47;43.28;;;;;;;;;;5074889;28;20020;-57
2020/12/09 05:54:32;;;;;;;95.07;42.53;;;;;;;;;;5080221;28;20036;-56
2020/12/09 05:56:58;;;;;;;94.68;42.15;;;;;;;;;;5071430;28;20032;-58
2020/12/09 05:59:34;;;;;;;99.65;42.50;;;;;;;;;;5080529;28;20065;-57
2020/12/09 06:02:07;;;;;;;94.75;43.55;;;;;;;;;;5064633;28;20028;-54
2020/12/09 06:04:42;;;;;;;74.72;33.55;;;;;;;;;;5064546;28;20028;-56
2020/12/09 06:07:09;;;;;;;97.13;43.03;;;;;;;;;;5071987;28;20078;-58
2020/12/09 06:09:37;;;;;;;92.20;42.55;;;;;;;;;;5072907;28;20501;-58
2020/12/09 06:12:03;;;;;;;92.15;42.90;;;;;;;;;;5078133;28;20551;-55
2020/12/09 06:14:29;;;;;;;91.20;43.20;;;;;;;;;;5071279;28;20032;-54
2020/12/09 06:16:55;;;;;;;93.75;43.67;;;;;;;;;;5066638;28;20028;-56
2020/12/09 06:19:22;;;;;;;90.20;43.03;;;;;;;;;;5070320;28;20032;-58
2020/12/09 06:21:53;;;;;;;94.40;44.25;;;;;;;;;;5066826;28;20354;-58
2020/12/09 06:24:20;;;;;;;95.63;43.78;;;;;;;;;;5072386;28;20025;-55
2020/12/09 06:26:48;;;;;;;103.00;45.83;;;;;;;;;;5069815;28;20452;-56
2020/12/09 06:29:14;;;;;;;95.47;45.05;;;;;;;;;;5068433;28;20111;-57
2020/12/09 06:31:40;;;;;;;108.15;46.40;;;;;;;;;;5068569;28;20116;-57
2020/12/09 06:34:13;;;;;;;107.25;46.45;;;;;;;;;;5076187;28;20028;-56
2020/12/09 06:36:39;;;;;;;103.03;46.63;;;;;;;;;;5075257;28;20469;-54
2020/12/09 06:39:10;;;;;;;97.18;46.03;;;;;;;;;;5065833;28;20048;-57
2020/12/09 06:41:38;;;;;;;100.45;46.15;;;;;;;;;;5070376;28;20035;-55
2020/12/09 06:44:05;;;;;;;102.25;46.53;;;;;;;;;;5088402;28;20047;-57
2020/12/09 06:46:34;;;;;;;97.97;45.17;;;;;;;;;;5084043;28;20400;-52
2020/12/09 06:49:00;;;;;;;97.70;45.33;;;;;;;;;;5088640;28;20028;-58
2020/12/09 06:51:35;;;;;;;105.13;47.33;;;;;;;;;;5088556;28;20035;-57
2020/12/09 06:54:10;;;;;;;101.60;47.25;;;;;;;;;;5084644;28;20028;-56
2020/12/09 06:56:36;;;;;;;105.13;46.75;;;;;;;;;;5082550;28;20031;-56
2020/12/09 06:59:21;;;;;;;108.38;47.67;;;;;;;;;;5072093;28;20448;-55
2020/12/09 07:02:13;;;;;;;106.05;47.22;;;;;;;;;;5058569;28;20442;-57
2020/12/09 07:04:54;;;;;;;106.00;48.13;;;;;;;;;;5033148;28;20486;-57
2020/12/09 07:07:30;;;;;;;105.72;46.72;;;;;;;;;;5070006;28;20090;-56
2020/12/09 07:09:56;;;;;;;95.47;44.47;;;;;;;;;;5063135;28;20034;-58
2020/12/09 07:12:23;;;;;;;95.38;44.67;;;;;;;;;;5065280;28;20037;-54
2020/12/09 07:14:49;;;;;;;104.00;47.60;;;;;;;;;;5075548;28;20059;-58
2020/12/09 07:17:21;;;;;;;98.60;44.88;;;;;;;;;;5088259;28;20024;-59
2020/12/09 07:19:47;;;;;;;92.07;45.05;;;;;;;;;;5081373;28;20511;-55
2020/12/09 07:22:13;;;;;;;101.50;45.97;;;;;;;;;;5082302;28;20078;-58
2020/12/09 07:24:39;;;;;;;99.32;45.90;;;;;;;;;;5071099;28;20482;-57
2020/12/09 07:27:05;;;;;;;96.30;46.05;;;;;;;;;;5082461;28;20025;-56
2020/12/09 07:29:31;;;;;;;99.78;45.42;;;;;;;;;;5078529;28;20067;-56
2020/12/09 07:32:02;;;;;;;97.32;44.17;;;;;;;;;;5057593;28;20079;-58
2020/12/09 07:34:28;;;;;;;100.78;45.30;;;;;;;;;;5085062;28;20024;-52
2020/12/09 07:36:55;;;;;;;99.72;46.67;;;;;;;;;;5077481;28;20028;-55
2020/12/09 07:39:27;;;;;;;97.00;45.08;;;;;;;;;;5066865;28;20024;-56
2020/12/09 07:41:54;;;;;;;98.95;46.70;;;;;;;;;;5076793;28;20029;-56
2020/12/09 07:44:20;;;;;;;107.40;47.58;;;;;;;;;;5085672;28;20032;-54
2020/12/09 07:46:56;;;;;;;97.22;47.40;;;;;;;;;;5087745;28;20031;-57
2020/12/09 07:49:23;;;;;;;98.93;45.78;;;;;;;;;;5086555;28;20614;-55
2020/12/09 07:51:51;;;;;;;103.22;47.58;;;;;;;;;;5074547;28;20500;-54
2020/12/09 07:54:17;;;;;;;101.72;46.05;;;;;;;;;;5087258;28;20084;-58
2020/12/09 07:56:43;;;;;;;101.75;46.25;;;;;;;;;;5070526;28;20029;-56
2020/12/09 07:59:10;;;;;;;100.07;47.20;;;;;;;;;;5074360;28;20025;-56
2020/12/09 08:01:37;;;;;;;102.35;45.70;;;;;;;;;;5071430;28;20021;-56
2020/12/09 08:04:02;;;;;;;101.05;47.28;;;;;;;;;;5087350;28;20044;-57
2020/12/09 08:06:29;;;;;;;103.38;47.45;;;;;;;;;;5061491;28;20032;-55
2020/12/09 08:08:55;;;;;;;99.25;45.97;;;;;;;;;;5062833;28;20043;-55
2020/12/09 08:11:21;;;;;;;98.35;47.05;;;;;;;;;;5070092;28;20028;-55
2020/12/09 08:13:47;;;;;;;97.80;45.15;;;;;;;;;;5075425;28;20411;-59
2020/12/09 08:16:13;;;;;;;101.72;47.90;;;;;;;;;;5080627;28;20020;-57
2020/12/09 08:18:40;;;;;;;97.22;46.35;;;;;;;;;;5076701;28;20418;-54
2020/12/09 08:21:08;;;;;;;100.32;46.92;;;;;;;;;;5074158;28;20730;-56
2020/12/09 08:23:41;;;;;;;100.45;46.40;;;;;;;;;;5056344;28;20459;-54
2020/12/09 08:26:08;;;;;;;97.18;43.65;;;;;;;;;;5082465;28;20028;-56
2020/12/09 08:28:34;;;;;;;113.60;49.92;;;;;;;;;;5078439;28;20105;-57
2020/12/09 08:31:00;;;;;;;94.75;44.20;;;;;;;;;;5075662;28;20025;-58
2020/12/09 08:33:30;;;;;;;91.97;45.00;;;;;;;;;;5073175;28;20024;-56
2020/12/09 08:36:00;;;;;;;96.72;44.53;;;;;;;;;;5071890;28;20032;-58
2020/12/09 08:38:41;;;;;;;98.72;46.40;;;;;;;;;;5086848;28;20024;-55
2020/12/09 08:41:30;;;;;;;93.00;45.28;;;;;;;;;;5059749;28;20123;-54
2020/12/09 08:44:00;;;;;;;94.40;45.70;;;;;;;;;;5054718;28;20780;-59
2020/12/09 08:46:27;;;;;;;99.00;46.50;;;;;;;;;;5069341;28;20032;-56
2020/12/09 08:48:54;;;;;;;98.85;45.70;;;;;;;;;;5056961;28;20039;-54
2020/12/09 08:51:27;;;;;;;97.53;44.30;;;;;;;;;;5068340;28;20036;-54
2020/12/09 08:53:53;;;;;;;95.45;44.97;;;;;;;;;;5063050;28;20499;-58
2020/12/09 08:56:28;;;;;;;98.38;46.13;;;;;;;;;;5082486;28;20024;-56
2020/12/09 08:58:54;;;;;;;101.70;46.90;;;;;;;;;;5079613;28;20037;-58
2020/12/09 09:01:20;;;;;;;99.22;46.08;;;;;;;;;;5081484;28;21024;-56
2020/12/09 09:03:51;;;;;;;100.55;43.83;;;;;;;;;;5086183;28;20135;-58
2020/12/09 09:06:17;;;;;;;90.50;42.70;;;;;;;;;;5075502;28;20085;-58
2020/12/09 09:08:43;;;;;;;98.53;46.08;;;;;;;;;;5077823;28;20032;-55
2020/12/09 09:11:09;;;;;;;92.03;44.90;;;;;;;;;;5064646;28;20092;-57
2020/12/09 09:13:34;;;;;;;99.68;46.83;;;;;;;;;;5065095;28;20020;-58
2020/12/09 09:16:09;;;;;;;94.57;46.03;;;;;;;;;;5083960;28;20024;-58
2020/12/09 09:18:36;;;;;;;100.47;43.78;;;;;;;;;;5064751;28;20049;-54
2020/12/09 09:21:02;;;;;;;94.50;44.97;;;;;;;;;;5080035;28;20029;-58
2020/12/09 09:23:28;;;;;;;99.25;44.75;;;;;;;;;;5066871;28;20028;-54
2020/12/09 09:25:54;;;;;;;94.55;45.72;;;;;;;;;;5073587;28;20025;-57
2020/12/09 09:28:20;;;;;;;96.90;42.70;;;;;;;;;;5072139;28;20025;-56
2020/12/09 09:30:46;;;;;;;98.85;45.00;;;;;;;;;;5074737;28;20087;-55
2020/12/09 09:33:12;;;;;;;96.85;43.78;;;;;;;;;;5064618;28;20403;-56
2020/12/09 09:35:38;;;;;;;93.20;44.05;;;;;;;;;;5079546;28;20051;-57
2020/12/09 09:38:04;;;;;;;93.45;44.60;;;;;;;;;;5080893;28;20031;-56
2020/12/09 09:40:30;;;;;;;101.20;44.80;;;;;;;;;;5083097;28;20052;-58
2020/12/09 09:42:56;;;;;;;93.13;44.38;;;;;;;;;;5072861;28;20034;-56
2020/12/09 09:45:23;;;;;;;97.07;43.85;;;;;;;;;;5083047;28;20044;-58
2020/12/09 09:47:49;;;;;;;95.20;43.92;;;;;;;;;;5070017;28;20039;-57
2020/12/09 09:50:15;;;;;;;104.18;47.08;;;;;;;;;;5085558;28;20024;-57
2020/12/09 09:52:41;;;;;;;92.82;44.20;;;;;;;;;;5068628;28;20763;-57
2020/12/09 09:55:07;;;;;;;105.72;52.25;;;;;;;;;;5066121;28;20023;-56
2020/12/09 09:57:36;;;;;;;97.05;44.92;;;;;;;;;;5082742;28;20028;-58
2020/12/09 10:00:02;;;;;;;119.65;56.70;;;;;;;;;;5083754;28;20060;-57
2020/12/09 10:02:27;;;;;;;97.28;46.53;;;;;;;;;;5085040;28;20075;-55
2020/12/09 10:04:53;;;;;;;107.82;50.85;;;;;;;;;;5083301;28;20074;-58
2020/12/09 10:07:19;;;;;;;94.40;44.90;;;;;;;;;;5083152;28;20070;-58
2020/12/09 10:09:45;;;;;;;103.40;49.15;;;;;;;;;;5085358;28;20028;-56
2020/12/09 10:12:11;;;;;;;110.97;50.88;;;;;;;;;;5076170;28;20028;-56
2020/12/09 10:14:37;;;;;;;90.45;42.75;;;;;;;;;;5065906;28;20070;-58
2020/12/09 10:17:03;;;;;;;88.15;42.85;;;;;;;;;;5082051;28;20024;-54
2020/12/09 10:19:29;;;;;;;92.43;41.50;;;;;;;;;;5085315;28;20044;-57
2020/12/09 10:21:59;;;;;;;101.60;44.90;;;;;;;;;;5082674;28;20032;-56
2020/12/09 10:24:25;;;;;;;90.40;43.25;;;;;;;;;;5076670;28;20121;-56
2020/12/09 10:26:51;;;;;;;90.93;45.22;;;;;;;;;;5082142;28;20032;-55
2020/12/09 10:29:17;;;;;;;103.45;46.58;;;;;;;;;;5061253;28;20032;-56
2020/12/09 10:31:47;;;;;;;93.38;44.25;;;;;;;;;;5074155;28;20121;-58
2020/12/09 10:34:17;;;;;;;89.95;43.60;;;;;;;;;;5069187;28;20032;-59
2020/12/09 10:36:46;;;;;;;93.93;42.97;;;;;;;;;;5085160;28;20020;-58
2020/12/09 10:39:12;;;;;;;99.78;42.35;;;;;;;;;;5079693;28;20052;-56
2020/12/09 10:41:41;;;;;;;89.20;41.95;;;;;;;;;;5087450;28;20032;-57
2020/12/09 10:44:07;;;;;;;104.72;48.92;;;;;;;;;;5076007;28;20036;-56
2020/12/09 10:46:35;;;;;;;89.07;42.90;;;;;;;;;;5085029;28;20020;-58
2020/12/09 10:49:01;;;;;;;93.38;41.10;;;;;;;;;;5083531;28;20032;-59
2020/12/09 10:51:28;;;;;;;90.65;43.13;;;;;;;;;;5066154;28;20223;-57
2020/12/09 10:53:54;;;;;;;90.88;43.33;;;;;;;;;;5080693;28;20025;-56
2020/12/09 10:56:27;;;;;;;93.50;42.22;;;;;;;;;;5088662;28;20020;-56
2020/12/09 10:58:53;;;;;;;90.45;42.88;;;;;;;;;;5088582;28;20020;-56
2020/12/09 11:01:20;;;;;;;96.05;42.65;;;;;;;;;;5088245;28;20559;-58
2020/12/09 11:03:46;;;;;;;94.68;43.35;;;;;;;;;;5080471;28;20043;-56
2020/12/09 11:06:12;;;;;;;91.80;43.40;;;;;;;;;;5088425;28;20035;-57
2020/12/09 11:08:38;;;;;;;88.03;42.17;;;;;;;;;;5084305;28;20070;-55
2020/12/09 11:11:04;;;;;;;88.88;42.88;;;;;;;;;;5073117;28;20037;-56
2020/12/09 11:13:30;;;;;;;96.85;42.85;;;;;;;;;;5071507;28;20028;-56
2020/12/09 11:15:56;;;;;;;90.93;43.25;;;;;;;;;;5076433;28;20454;-56
2020/12/09 11:18:22;;;;;;;101.70;46.40;;;;;;;;;;5072532;28;20475;-58
2020/12/09 11:20:48;;;;;;;85.95;41.40;;;;;;;;;;5076404;28;20506;-55
2020/12/09 11:23:14;;;;;;;89.55;41.13;;;;;;;;;;5068412;28;20028;-58
2020/12/09 11:25:40;;;;;;;94.00;41.10;;;;;;;;;;5073225;28;20027;-55
2020/12/09 11:28:06;;;;;;;91.82;40.58;;;;;;;;;;5088168;28;20036;-55
2020/12/09 11:30:32;;;;;;;83.47;40.78;;;;;;;;;;5084983;28;20032;-58
2020/12/09 11:32:58;;;;;;;90.55;40.67;;;;;;;;;;5083397;28;20040;-55
2020/12/09 11:35:24;;;;;;;93.65;43.03;;;;;;;;;;5082641;28;20051;-59
2020/12/09 11:37:50;;;;;;;93.43;42.15;;;;;;;;;;5087798;28;20430;-57
2020/12/09 11:40:16;;;;;;;87.35;40.83;;;;;;;;;;5069408;28;20044;-55
2020/12/09 11:42:42;;;;;;;86.60;39.08;;;;;;;;;;5081740;28;20788;-58
2020/12/09 11:45:08;;;;;;;88.65;41.03;;;;;;;;;;5087010;28;20031;-56
2020/12/09 11:47:37;;;;;;;85.28;40.53;;;;;;;;;;5087774;28;20578;-55
2020/12/09 11:50:06;;;;;;;98.05;43.75;;;;;;;;;;5068889;28;20030;-56
2020/12/09 11:52:32;;;;;;;92.78;42.13;;;;;;;;;;5077949;28;20085;-58
2020/12/09 11:54:58;;;;;;;98.30;41.47;;;;;;;;;;5085513;28;20036;-57
2020/12/09 11:57:24;;;;;;;83.95;39.42;;;;;;;;;;5087631;28;20375;-56
2020/12/09 11:59:50;;;;;;;89.60;40.42;;;;;;;;;;5077816;28;20085;-58
2020/12/09 12:02:16;;;;;;;89.15;41.00;;;;;;;;;;5077632;28;20020;-55
2020/12/09 12:04:42;;;;;;;93.30;41.95;;;;;;;;;;5069078;28;20036;-54
2020/12/09 12:07:08;;;;;;;86.40;39.95;;;;;;;;;;5087014;28;20042;-58
2020/12/09 12:09:34;;;;;;;87.43;40.25;;;;;;;;;;5077165;28;20020;-58
2020/12/09 12:12:00;;;;;;;90.07;43.10;;;;;;;;;;5087243;28;20744;-58
2020/12/09 12:14:26;;;;;;;89.47;40.08;;;;;;;;;;5074449;28;20024;-57
2020/12/09 12:16:52;;;;;;;86.68;39.00;;;;;;;;;;5085419;28;20499;-57
2020/12/09 12:19:19;;;;;;;91.82;40.10;;;;;;;;;;5069734;28;20040;-55
2020/12/09 12:21:47;;;;;;;89.93;40.17;;;;;;;;;;5072605;28;20031;-52
2020/12/09 12:24:13;;;;;;;87.18;40.58;;;;;;;;;;5079232;28;20059;-57
2020/12/09 12:26:39;;;;;;;83.32;39.95;;;;;;;;;;5068961;28;20032;-54
2020/12/09 12:29:05;;;;;;;88.78;40.10;;;;;;;;;;5059418;28;20024;-57
2020/12/09 12:31:31;;;;;;;88.90;41.05;;;;;;;;;;5066298;28;20080;-55
2020/12/09 12:33:57;;;;;;;94.55;42.80;;;;;;;;;;5083532;28;20062;-56
2020/12/09 12:36:23;;;;;;;78.30;36.83;;;;;;;;;;5063518;28;20016;-56
2020/12/09 12:38:49;;;;;;;79.63;39.28;;;;;;;;;;5063008;28;20033;-55
2020/12/09 12:41:15;;;;;;;75.03;36.05;;;;;;;;;;5077800;28;20036;-58
2020/12/09 12:43:41;;;;;;;80.78;37.17;;;;;;;;;;5079532;28;20030;-57
2020/12/09 12:46:11;;;;;;;84.53;37.75;;;;;;;;;;5080178;28;20023;-55
2020/12/09 12:48:37;;;;;;;79.93;38.53;;;;;;;;;;5078406;28;20110;-57
2020/12/09 12:51:03;;;;;;;77.25;38.78;;;;;;;;;;5070354;28;20056;-57
2020/12/09 12:53:29;;;;;;;79.97;38.28;;;;;;;;;;5077700;28;20028;-59
2020/12/09 12:55:54;;;;;;;85.55;38.17;;;;;;;;;;5072866;28;20043;-58
2020/12/09 12:58:20;;;;;;;80.38;38.08;;;;;;;;;;5085945;28;20020;-58
2020/12/09 13:00:46;;;;;;;76.15;36.42;;;;;;;;;;5085710;28;20035;-57
2020/12/09 13:03:12;;;;;;;84.18;39.35;;;;;;;;;;5064731;28;20044;-58
2020/12/09 13:05:38;;;;;;;83.47;37.20;;;;;;;;;;5082598;28;20044;-55
2020/12/09 13:08:04;;;;;;;75.88;36.15;;;;;;;;;;5073797;28;20031;-58
2020/12/09 13:10:30;;;;;;;85.75;39.78;;;;;;;;;;5083329;28;20474;-56
2020/12/09 13:12:56;;;;;;;81.63;38.72;;;;;;;;;;5072392;28;20392;-56
2020/12/09 13:15:22;;;;;;;78.97;37.63;;;;;;;;;;5081720;28;20533;-58
2020/12/09 13:17:48;;;;;;;78.78;36.72;;;;;;;;;;5070097;28;20021;-58
2020/12/09 13:20:14;;;;;;;74.18;35.42;;;;;;;;;;5056282;28;20028;-58
2020/12/09 13:22:40;;;;;;;82.25;38.03;;;;;;;;;;5072618;28;20379;-59
2020/12/09 13:25:07;;;;;;;83.20;37.20;;;;;;;;;;5070105;28;20025;-58
2020/12/09 13:27:33;;;;;;;84.70;37.25;;;;;;;;;;5074076;28;20508;-56
2020/12/09 13:29:59;;;;;;;76.50;35.10;;;;;;;;;;5069741;28;20450;-58
2020/12/09 13:32:25;;;;;;;79.43;35.28;;;;;;;;;;5066055;28;20017;-56
2020/12/09 13:34:51;;;;;;;76.00;37.75;;;;;;;;;;5071029;28;20509;-58
2020/12/09 13:37:17;;;;;;;79.53;36.65;;;;;;;;;;5068642;28;20063;-57
2020/12/09 13:39:43;;;;;;;82.78;38.22;;;;;;;;;;5065761;28;20028;-56
2020/12/09 13:42:09;;;;;;;83.22;37.10;;;;;;;;;;5079144;28;21891;-56
2020/12/09 13:44:36;;;;;;;81.70;36.42;;;;;;;;;;5070222;28;20020;-57
2020/12/09 13:47:02;;;;;;;86.97;39.03;;;;;;;;;;5067365;28;20036;-56
2020/12/09 13:49:28;;;;;;;78.68;37.15;;;;;;;;;;5066936;28;20020;-58
2020/12/09 13:51:54;;;;;;;77.78;35.95;;;;;;;;;;5066936;28;20391;-58
2020/12/09 13:54:22;;;;;;;82.50;36.75;;;;;;;;;;5064741;28;20020;-58
2020/12/09 13:56:48;;;;;;;75.55;36.33;;;;;;;;;;5063474;28;20029;-58
2020/12/09 13:59:14;;;;;;;83.88;36.53;;;;;;;;;;5069094;28;20090;-58
2020/12/09 14:01:40;;;;;;;83.88;36.92;;;;;;;;;;5062402;28;20479;-56
2020/12/09 14:04:06;;;;;;;84.78;38.47;;;;;;;;;;5067850;28;21521;-54
2020/12/09 14:06:32;;;;;;;79.97;36.20;;;;;;;;;;5068057;28;20490;-62
2020/12/09 14:08:58;;;;;;;99.75;38.00;;;;;;;;;;5067399;28;20448;-62
2020/12/09 14:11:25;;;;;;;91.63;38.72;;;;;;;;;;5062060;28;20835;-61
2020/12/09 14:13:51;;;;;;;91.00;38.78;;;;;;;;;;5068220;28;20041;-61
2020/12/09 14:16:17;;;;;;;80.32;35.85;;;;;;;;;;5072247;28;20036;-61
2020/12/09 14:18:44;;;;;;;83.35;36.97;;;;;;;;;;5068817;28;20029;-61